Time;durP1;ratioP1;P1;durP2;ratioP2;P2;SDS_P1;SDS_P2;PMS_P1;PMS_P2;Temp;Humidity;BMP_temperature;BMP_pressure;BME280_temperature;BME280_humidity;BME280_pressure;Samples;Min_cycle;Max_cycle;Signal;HPM_P1;HPM_P2
2023/03/13 00:00:16;;;;;;;404.93;77.90;;;5.90;99.90;;;;;;5082232;28;20244;-49
2023/03/13 00:02:44;;;;;;;423.90;82.93;;;;;;;;;;5066008;28;20308;-49
2023/03/13 00:05:13;;;;;;;452.07;91.20;;;;;;;;;;5060605;28;20592;-50
2023/03/13 00:07:39;;;;;;;522.80;103.90;;;;;;;;;;5081677;28;20226;-49
2023/03/13 00:10:06;;;;;;;544.90;114.13;;;;;;;;;;5069926;28;20213;-51
2023/03/13 00:12:32;;;;;;;479.73;96.97;;;;;;;;;;5072645;28;20214;-49
2023/03/13 00:14:58;;;;;;;440.67;84.47;;;;;;;;;;5083734;28;20484;-51
2023/03/13 00:17:24;;;;;;;485.23;102.40;;;;;;;;;;5071469;28;20374;-50
2023/03/13 00:19:50;;;;;;;501.23;101.93;;;;;;;;;;5069504;28;20228;-49
2023/03/13 00:22:16;;;;;;;542.70;113.53;;;;;;;;;;5064159;28;20236;-50
2023/03/13 00:24:42;;;;;;;450.30;93.47;;;;;;;;;;5074797;28;20282;-50
2023/03/13 00:27:08;;;;;;;496.03;102.30;;;;;;;;;;5045515;28;20278;-50
2023/03/13 00:29:34;;;;;;;554.13;116.77;;;;;;;;;;5073223;28;20210;-50
2023/03/13 00:32:19;;;;;;;414.27;84.40;;;;;;;;;;5076081;28;20220;-50
2023/03/13 00:34:45;;;;;;;535.50;118.47;;;;;;;;;;5068845;28;20258;-49
2023/03/13 00:37:10;;;;;;;456.20;93.47;;;6.20;99.90;;;;;;5064258;28;20396;-50
2023/03/13 00:39:36;;;;;;;419.90;85.30;;;;;;;;;;5076115;28;20472;-48
2023/03/13 00:42:03;;;;;;;443.17;86.63;;;;;;;;;;5059158;28;20690;-49
2023/03/13 00:44:29;;;;;;;537.53;116.27;;;;;;;;;;5053591;28;20656;-50
2023/03/13 00:46:55;;;;;;;505.10;104.97;;;;;;;;;;5063230;28;20294;-49
2023/03/13 00:49:21;;;;;;;539.13;113.60;;;;;;;;;;5070172;28;20273;-51
2023/03/13 00:51:47;;;;;;;549.83;116.33;;;;;;;;;;5070634;28;20289;-49
2023/03/13 00:54:14;;;;;;;438.47;90.27;;;;;;;;;;5070445;28;20307;-49
2023/03/13 00:56:40;;;;;;;625.90;139.27;;;;;;;;;;5064283;28;20770;-49
2023/03/13 00:59:06;;;;;;;480.43;102.20;;;;;;;;;;5073474;28;20293;-51
2023/03/13 01:01:33;;;;;;;452.30;89.90;;;;;;;;;;5068248;28;20281;-49
2023/03/13 01:04:05;;;;;;;603.50;135.07;;;6.30;99.90;;;;;;5058792;28;20182;-51
2023/03/13 01:06:32;;;;;;;553.30;117.93;;;;;;;;;;5050314;28;20210;-50
2023/03/13 01:08:58;;;;;;;476.57;95.90;;;6.60;99.90;;;;;;5039376;28;20215;-50
2023/03/13 01:11:28;;;;;;;549.83;114.17;;;;;;;;;;5053778;28;20674;-49
2023/03/13 01:13:55;;;;;;;554.17;124.47;;;;;;;;;;5058446;28;20264;-49
2023/03/13 01:16:22;;;;;;;526.17;109.50;;;;;;;;;;5049635;28;20775;-49
2023/03/13 01:18:49;;;;;;;487.10;97.07;;;;;;;;;;5055190;28;20324;-50
2023/03/13 01:21:18;;;;;;;454.87;98.00;;;;;;;;;;5055124;28;20320;-50
2023/03/13 01:23:44;;;;;;;574.67;125.20;;;;;;;;;;5051885;28;20295;-50
2023/03/13 01:26:10;;;;;;;564.93;119.13;;;;;;;;;;5059654;28;20313;-49
2023/03/13 01:28:36;;;;;;;579.83;128.73;;;6.60;99.90;;;;;;5053811;28;20200;-52
2023/03/13 01:31:11;;;;;;;475.20;88.17;;;;;;;;;;5033718;22;20231;-53
2023/03/13 01:33:37;;;;;;;596.97;120.53;;;;;;;;;;5003975;28;20768;-53
2023/03/13 01:36:03;;;;;;;477.07;89.17;;;;;;;;;;5010164;28;20297;-53
2023/03/13 01:38:29;;;;;;;511.37;97.97;;;;;;;;;;5015890;28;20218;-53
2023/03/13 01:40:55;;;;;;;610.07;116.80;;;;;;;;;;5018005;28;20736;-52
2023/03/13 01:43:23;;;;;;;556.50;110.87;;;;;;;;;;5014845;28;20642;-53
2023/03/13 01:46:12;;;;;;;538.07;103.03;;;;;;;;;;5017967;28;20211;-53
2023/03/13 01:48:43;;;;;;;563.07;109.53;;;;;;;;;;5012576;28;20219;-53
2023/03/13 01:51:28;;;;;;;597.60;118.87;;;;;;;;;;5012381;28;20290;-55
2023/03/13 01:53:57;;;;;;;530.33;102.13;;;;;;;;;;4988435;28;20221;-53
2023/03/13 01:56:29;;;;;;;480.90;87.47;;;;;;;;;;5013444;28;20758;-54
2023/03/13 01:58:57;;;;;;;569.90;112.13;;;;;;;;;;5005625;28;20308;-54
2023/03/13 02:01:23;;;;;;;603.07;117.40;;;;;;;;;;5014619;28;20751;-54
2023/03/13 02:03:50;;;;;;;585.47;115.57;;;;;;;;;;5020542;28;20226;-54
2023/03/13 02:06:16;;;;;;;602.13;114.97;;;;;;;;;;5011451;28;20384;-53
2023/03/13 02:08:48;;;;;;;554.10;110.10;;;;;;;;;;5013622;28;20250;-54
2023/03/13 02:11:23;;;;;;;581.03;118.87;;;;;;;;;;4989550;28;21214;-54
2023/03/13 02:13:50;;;;;;;607.40;118.63;;;;;;;;;;5007334;28;20227;-53
2023/03/13 02:16:16;;;;;;;593.03;115.83;;;;;;;;;;5011378;28;20179;-53
2023/03/13 02:18:43;;;;;;;482.13;96.97;;;;;;;;;;5014369;28;20242;-53
2023/03/13 02:21:24;;;;;;;616.33;129.60;;;;;;;;;;5008183;28;20708;-53
2023/03/13 02:23:56;;;;;;;548.73;110.00;;;;;;;;;;5013771;28;20709;-53
2023/03/13 02:26:22;;;;;;;582.93;123.87;;;;;;;;;;5012457;28;20223;-54
2023/03/13 02:28:49;;;;;;;577.13;121.00;;;;;;;;;;5003767;28;21386;-53
2023/03/13 02:31:15;;;;;;;601.77;120.53;;;;;;;;;;5012633;28;20210;-53
2023/03/13 02:33:42;;;;;;;552.17;108.40;;;;;;;;;;5021544;28;20273;-53
2023/03/13 02:36:08;;;;;;;598.33;120.83;;;;;;;;;;5011060;28;20219;-54
2023/03/13 02:38:36;;;;;;;635.60;130.67;;;;;;;;;;5009901;28;20879;-54
2023/03/13 02:41:04;;;;;;;561.37;116.53;;;;;;;;;;5004174;28;20576;-54
2023/03/13 02:43:31;;;;;;;529.10;102.37;;;;;;;;;;4997093;28;20180;-54
2023/03/13 02:46:06;;;;;;;452.10;88.60;;;;;;;;;;5019728;28;20714;-53
2023/03/13 02:48:37;;;;;;;529.13;99.10;;;;;;;;;;5018981;28;20629;-53
2023/03/13 02:51:05;;;;;;;549.30;109.17;;;;;;;;;;5016326;28;20689;-53
2023/03/13 02:53:31;;;;;;;447.90;86.10;;;;;;;;;;4994331;28;20297;-53
2023/03/13 02:55:57;;;;;;;498.63;104.37;;;;;;;;;;5012535;28;20219;-54
2023/03/13 02:58:24;;;;;;;483.27;86.27;;;;;;;;;;5010128;28;20180;-54
2023/03/13 03:00:50;;;;;;;484.07;94.07;;;;;;;;;;5010775;28;20216;-54
2023/03/13 03:03:16;;;;;;;682.90;137.83;;;;;;;;;;5011030;28;20696;-53
2023/03/13 03:05:42;;;;;;;505.30;94.63;;;;;;;;;;5023043;28;20219;-53
2023/03/13 03:08:08;;;;;;;537.27;103.80;;;;;;;;;;5000741;28;20231;-53
2023/03/13 03:10:36;;;;;;;615.47;122.60;;;;;;;;;;5015435;28;20207;-53
2023/03/13 03:13:01;;;;;;;537.20;109.97;;;;;;;;;;4998764;28;20279;-54
2023/03/13 03:15:27;;;;;;;537.47;97.23;;;;;;;;;;5013420;28;20223;-54
2023/03/13 03:17:53;;;;;;;502.80;108.97;;;;;;;;;;5013031;28;20247;-54
2023/03/13 03:20:19;;;;;;;607.43;123.00;;;;;;;;;;5006018;28;20314;-54
2023/03/13 03:22:45;;;;;;;434.57;88.03;;;;;;;;;;5017309;28;20230;-54
2023/03/13 03:25:12;;;;;;;475.77;94.20;;;;;;;;;;5008888;28;20180;-54
2023/03/13 03:27:38;;;;;;;485.83;98.43;;;;;;;;;;5012001;28;20291;-54
2023/03/13 03:30:05;;;;;;;463.57;82.33;;;;;;;;;;5017281;28;20249;-54
2023/03/13 03:32:31;;;;;;;474.00;89.70;;;;;;;;;;5015931;28;20252;-54
2023/03/13 03:34:57;;;;;;;508.63;93.30;;;;;;;;;;5013470;28;20218;-54
2023/03/13 03:37:23;;;;;;;525.87;98.87;;;;;;;;;;5014780;28;20192;-53
2023/03/13 03:39:49;;;;;;;522.30;100.47;;;;;;;;;;5006305;28;20214;-54
2023/03/13 03:42:15;;;;;;;629.70;122.30;;;;;;;;;;4998259;28;20338;-54
2023/03/13 03:44:41;;;;;;;589.67;115.50;;;;;;;;;;5020212;28;20211;-54
2023/03/13 03:47:07;;;;;;;570.77;112.70;;;;;;;;;;5016923;28;22015;-54
2023/03/13 03:49:33;;;;;;;550.17;105.67;;;;;;;;;;5012903;28;20176;-54
2023/03/13 03:51:59;;;;;;;525.73;98.13;;;;;;;;;;5020080;28;20186;-53
2023/03/13 03:54:25;;;;;;;539.70;104.20;;;;;;;;;;5017320;28;20211;-54
2023/03/13 03:56:51;;;;;;;520.27;100.70;;;;;;;;;;5008261;28;20212;-54
2023/03/13 03:59:17;;;;;;;508.87;93.73;;;;;;;;;;5019009;28;20597;-54
2023/03/13 04:01:43;;;;;;;483.27;90.87;;;;;;;;;;5018129;28;20195;-53
2023/03/13 04:04:09;;;;;;;539.10;104.63;;;;;;;;;;5014253;28;20611;-54
2023/03/13 04:06:35;;;;;;;532.50;99.10;;;;;;;;;;5013342;28;20286;-53
2023/03/13 04:09:01;;;;;;;508.03;104.43;;;;;;;;;;5018664;28;21064;-54
2023/03/13 04:11:27;;;;;;;615.23;123.57;;;;;;;;;;5007885;28;22001;-53
2023/03/13 04:13:53;;;;;;;439.97;84.37;;;;;;;;;;4993327;28;20216;-53
2023/03/13 04:16:19;;;;;;;584.20;118.23;;;;;;;;;;5012535;28;20911;-54
2023/03/13 04:18:45;;;;;;;487.07;92.37;;;;;;;;;;5007083;28;20878;-54
2023/03/13 04:21:11;;;;;;;559.60;110.67;;;;;;;;;;5011190;28;20295;-54
2023/03/13 04:23:37;;;;;;;497.20;97.60;;;;;;;;;;5017548;28;20212;-54
2023/03/13 04:26:03;;;;;;;532.50;109.10;;;;;;;;;;5015035;28;20294;-53
2023/03/13 04:28:29;;;;;;;513.07;93.60;;;;;;;;;;4975218;28;20296;-54
2023/03/13 04:30:56;;;;;;;570.07;111.93;;;;;;;;;;5017086;28;20221;-54
2023/03/13 04:33:22;;;;;;;543.40;94.60;;;;;;;;;;5019456;28;20331;-54
2023/03/13 04:35:48;;;;;;;489.90;96.13;;;;;;;;;;5004349;28;20210;-53
2023/03/13 04:38:14;;;;;;;671.90;135.87;;;;;;;;;;5020440;28;20465;-53
2023/03/13 04:40:40;;;;;;;613.17;124.30;;;;;;;;;;5020181;28;20208;-54
2023/03/13 04:43:05;;;;;;;559.57;104.60;;;;;;;;;;5010164;28;20257;-54
2023/03/13 04:45:31;;;;;;;512.50;101.13;;;;;;;;;;5016078;28;20207;-53
2023/03/13 04:47:57;;;;;;;390.50;69.13;;;;;;;;;;5022279;28;20211;-53
2023/03/13 04:50:23;;;;;;;612.13;118.33;;;;;;;;;;5014584;28;20211;-54
2023/03/13 04:52:49;;;;;;;499.10;96.83;;;;;;;;;;5014610;28;20225;-54
2023/03/13 04:55:16;;;;;;;511.87;97.40;;;;;;;;;;5017513;28;20199;-54
2023/03/13 04:57:42;;;;;;;545.93;101.03;;;;;;;;;;5012247;28;20230;-54
2023/03/13 05:00:11;;;;;;;564.80;110.30;;;;;;;;;;5012251;28;20234;-54
2023/03/13 05:02:37;;;;;;;503.30;89.77;;;;;;;;;;5014469;28;20671;-52
2023/03/13 05:05:03;;;;;;;555.57;98.20;;;;;;;;;;5010086;28;20375;-52
2023/03/13 05:07:29;;;;;;;567.37;113.37;;;;;;;;;;5018995;28;20216;-52
2023/03/13 05:09:55;;;;;;;618.57;118.60;;;;;;;;;;5011470;28;20368;-52
2023/03/13 05:12:21;;;;;;;607.87;124.87;;;;;;;;;;5006815;28;20644;-52
2023/03/13 05:14:49;;;;;;;547.83;107.90;;;;;;;;;;5010576;28;20214;-52
2023/03/13 05:17:16;;;;;;;523.57;98.50;;;;;;;;;;5015321;28;20522;-52
2023/03/13 05:19:42;;;;;;;587.17;119.97;;;;;;;;;;5013999;28;20203;-52
2023/03/13 05:22:08;;;;;;;514.50;96.10;;;;;;;;;;5016211;28;20307;-52
2023/03/13 05:24:34;;;;;;;537.73;98.23;;;;;;;;;;5015940;28;20246;-52
2023/03/13 05:27:01;;;;;;;513.37;99.00;;;;;;;;;;5021335;28;20724;-52
2023/03/13 05:29:27;;;;;;;461.90;91.57;;;;;;;;;;5013203;28;20717;-53
2023/03/13 05:31:53;;;;;;;484.50;84.70;;;;;;;;;;5020493;28;20223;-52
2023/03/13 05:34:19;;;;;;;551.53;101.13;;;;;;;;;;5018455;28;20186;-52
2023/03/13 05:36:45;;;;;;;508.10;88.27;;;;;;;;;;5023258;28;20219;-53
2023/03/13 05:39:11;;;;;;;536.00;100.73;;;;;;;;;;5014776;28;20583;-55
2023/03/13 05:41:37;;;;;;;435.70;78.00;;;;;;;;;;5008782;28;20416;-52
2023/03/13 05:44:03;;;;;;;563.70;102.00;;;;;;;;;;5011294;28;20630;-52
2023/03/13 05:46:29;;;;;;;521.37;94.33;;;;;;;;;;5016444;28;20411;-52
2023/03/13 05:48:55;;;;;;;547.27;97.37;;;;;;;;;;5014539;28;20512;-52
2023/03/13 05:51:22;;;;;;;520.87;94.53;;;;;;;;;;5012019;28;20314;-52
2023/03/13 05:53:48;;;;;;;475.00;79.60;;;;;;;;;;5026403;28;20273;-52
2023/03/13 05:56:14;;;;;;;740.63;155.77;;;;;;;;;;5024304;28;20470;-52
2023/03/13 05:58:40;;;;;;;532.43;103.93;;;;;;;;;;5015661;28;20188;-52
2023/03/13 06:01:09;;;;;;;547.00;104.70;;;;;;;;;;5027962;28;20235;-52
2023/03/13 06:03:35;;;;;;;526.07;97.23;;;;;;;;;;5021221;28;20534;-52
2023/03/13 06:06:01;;;;;;;625.27;114.93;;;;;;;;;;5030932;28;20215;-52
2023/03/13 06:08:27;;;;;;;504.63;91.90;;;;;;;;;;5024317;28;20701;-52
2023/03/13 06:10:53;;;;;;;540.10;97.73;;;;;;;;;;5028535;28;20624;-52
2023/03/13 06:13:19;;;;;;;531.40;91.57;;;;;;;;;;5023976;28;20632;-52
2023/03/13 06:15:55;;;;;;;547.50;99.00;;;;;;;;;;5016486;28;20722;-51
2023/03/13 06:18:22;;;;;;;464.03;85.07;;;;;;;;;;5015856;28;20218;-51
2023/03/13 06:20:48;;;;;;;500.13;88.57;;;;;;;;;;5013617;28;21724;-52
2023/03/13 06:23:14;;;;;;;513.37;92.73;;;;;;;;;;5017176;28;20220;-52
2023/03/13 06:25:40;;;;;;;544.87;106.97;;;;;;;;;;4998349;28;20183;-52
2023/03/13 06:28:06;;;;;;;601.13;116.90;;;;;;;;;;4998041;28;20218;-52
2023/03/13 06:30:32;;;;;;;530.77;102.53;;;;;;;;;;5011152;28;20568;-52
2023/03/13 06:32:59;;;;;;;552.23;99.03;;;;;;;;;;5000749;28;20222;-52
2023/03/13 06:35:24;;;;;;;622.53;125.03;;;;;;;;;;5017094;28;20243;-52
2023/03/13 06:37:50;;;;;;;594.83;123.33;;;;;;;;;;5001203;28;20214;-52
2023/03/13 06:40:17;;;;;;;603.50;119.47;;;;;;;;;;5025067;28;20419;-53
2023/03/13 06:42:42;;;;;;;542.03;105.40;;;;;;;;;;5010836;28;20234;-53
2023/03/13 06:45:09;;;;;;;704.00;143.47;;;;;;;;;;5008814;28;20222;-54
2023/03/13 06:47:35;;;;;;;572.03;111.53;;;;;;;;;;4989782;28;20433;-53
2023/03/13 06:50:00;;;;;;;550.67;100.77;;;;;;;;;;4997437;28;20962;-53
2023/03/13 06:52:26;;;;;;;554.30;101.67;;;;;;;;;;5020667;28;20201;-53
2023/03/13 06:54:52;;;;;;;388.90;68.10;;;;;;;;;;5035659;28;20211;-53
2023/03/13 06:57:19;;;;;;;637.90;120.30;;;;;;;;;;5026878;28;20211;-53
2023/03/13 06:59:44;;;;;;;614.80;121.93;;;;;;;;;;5040813;23;20770;-57
2023/03/13 07:02:11;;;;;;;708.67;143.27;;;;;;;;;;5009674;28;20406;-55
2023/03/13 07:04:37;;;;;;;624.83;130.80;;;;;;;;;;5011602;28;20240;-56
2023/03/13 07:07:03;;;;;;;629.73;133.27;;;;;;;;;;5024441;28;20639;-56
2023/03/13 07:09:29;;;;;;;647.00;136.90;;;;;;;;;;5033668;28;20342;-57
2023/03/13 07:11:57;;;;;;;556.60;114.37;;;;;;;;;;5049660;23;21487;-49
2023/03/13 07:14:23;;;;;;;714.10;177.30;;;;;;;;;;5003996;28;20242;-49
2023/03/13 07:16:49;;;;;;;620.00;131.07;;;;;;;;;;4983324;28;20246;-49
2023/03/13 07:19:16;;;;;;;530.23;116.90;;;;;;;;;;5016100;28;20210;-49
2023/03/13 07:21:43;;;;;;;541.93;114.40;;;;;;;;;;5017963;28;20688;-49
2023/03/13 07:24:09;;;;;;;675.87;160.90;;;;;;;;;;5005708;28;20222;-49
2023/03/13 07:26:35;;;;;;;628.03;138.67;;;;;;;;;;5015291;28;20446;-50
2023/03/13 07:29:01;;;;;;;575.17;122.27;;;;;;;;;;5009674;28;20241;-50
2023/03/13 07:31:28;;;;;;;675.33;149.47;;;;;;;;;;5018348;28;20425;-49
2023/03/13 07:33:55;;;;;;;595.77;130.93;;;;;;;;;;5015564;28;20391;-49
2023/03/13 07:36:21;;;;;;;567.80;123.77;;;;;;;;;;4996718;28;20295;-49
2023/03/13 07:38:50;;;;;;;615.73;139.47;;;8.90;99.90;;;;;;5010149;28;20257;-49
2023/03/13 07:41:17;;;;;;;645.27;153.70;;;;;;;;;;5012134;28;20227;-49
2023/03/13 07:43:43;;;;;;;673.97;163.43;;;;;;;;;;5017841;28;20604;-48
2023/03/13 07:46:11;;;;;;;595.53;139.37;;;;;;;;;;5009953;28;20209;-48
2023/03/13 07:48:38;;;;;;;635.17;142.37;;;;;;;;;;5000204;28;20233;-48
2023/03/13 07:51:09;;;;;;;709.20;174.13;;;;;;;;;;5007377;28;20210;-48
2023/03/13 07:53:35;;;;;;;672.40;151.83;;;;;;;;;;4994565;28;20230;-48
2023/03/13 07:56:03;;;;;;;683.97;145.93;;;;;;;;;;5021477;28;20219;-48
2023/03/13 07:58:30;;;;;;;507.60;104.20;;;;;;;;;;5023952;28;20193;-50
2023/03/13 08:00:57;;;;;;;469.63;93.13;;;;;;;;;;5009950;28;20392;-49
2023/03/13 08:03:23;;;;;;;507.23;98.13;;;;;;;;;;5036236;28;20284;-49
2023/03/13 08:06:03;;;;;;;498.20;102.03;;;;;;;;;;5018139;28;20703;-49
2023/03/13 08:08:29;;;;;;;542.50;114.83;;;;;;;;;;5018359;28;20355;-49
2023/03/13 08:10:59;;;;;;;532.70;108.67;;;;;;;;;;5022046;28;20237;-48
2023/03/13 08:13:25;;;;;;;523.23;107.83;;;;;;;;;;5043117;28;20267;-49
2023/03/13 08:15:51;;;;;;;481.93;94.10;;;;;;;;;;5047794;28;20210;-49
2023/03/13 08:18:17;;;;;;;520.33;115.57;;;;;;;;;;5038403;28;20714;-49
2023/03/13 08:20:43;;;;;;;498.47;100.50;;;;;;;;;;5048042;28;20272;-51
2023/03/13 08:23:09;;;;;;;539.17;104.63;;;;;;;;;;5048642;28;20375;-49
2023/03/13 08:25:35;;;;;;;561.03;106.73;;;;;;;;;;5050961;28;20931;-49
2023/03/13 08:28:01;;;;;;;516.90;100.33;;;;;;;;;;5045556;28;20207;-49
2023/03/13 08:30:27;;;;;;;501.03;99.17;;;;;;;;;;5032031;28;20302;-49
2023/03/13 08:32:53;;;;;;;486.83;107.30;;;;;;;;;;5040003;28;20245;-49
2023/03/13 08:35:19;;;;;;;571.83;116.37;;;;;;;;;;5048192;28;20615;-49
2023/03/13 08:37:45;;;;;;;573.03;117.00;;;;;;;;;;5040761;28;20195;-49
2023/03/13 08:40:12;;;;;;;480.63;95.03;;;;;;;;;;5046621;28;20195;-49
2023/03/13 08:42:39;;;;;;;568.60;110.20;;;;;;;;;;5041557;28;20716;-49
2023/03/13 08:45:05;;;;;;;522.40;102.83;;;;;;;;;;5031220;28;20243;-49
2023/03/13 08:47:31;;;;;;;484.03;94.33;;;;;;;;;;5043192;28;20218;-49
2023/03/13 08:49:57;;;;;;;520.47;100.80;;;;;;;;;;5027636;28;20219;-48
2023/03/13 08:52:24;;;;;;;496.93;94.03;;;;;;;;;;5037242;28;20723;-49
2023/03/13 08:54:50;;;;;;;589.00;109.77;;;;;;;;;;5011663;28;20219;-49
2023/03/13 08:57:16;;;;;;;619.57;128.57;;;;;;;;;;5026523;28;20276;-49
2023/03/13 08:59:42;;;;;;;629.33;133.93;;;;;;;;;;5025213;28;20211;-49
2023/03/13 09:02:09;;;;;;;643.53;132.00;;;;;;;;;;4993387;28;21073;-49
2023/03/13 09:04:35;;;;;;;559.17;116.93;;;;;;;;;;5020432;28;20635;-49
2023/03/13 09:07:01;;;;;;;535.30;106.80;;;;;;;;;;5024334;28;20243;-48
2023/03/13 09:09:27;;;;;;;478.27;92.80;;;;;;;;;;5034773;28;20406;-49
2023/03/13 09:11:53;;;;;;;636.90;140.83;;;;;;;;;;5024265;28;20218;-49
2023/03/13 09:14:19;;;;;;;563.30;109.07;;;;;;;;;;5034931;28;20211;-49
2023/03/13 09:16:46;;;;;;;653.20;138.23;;;;;;;;;;5005761;28;20187;-48
2023/03/13 09:19:13;;;;;;;639.10;133.13;;;;;;;;;;5019082;28;20190;-48
2023/03/13 09:21:39;;;;;;;667.50;139.93;;;;;;;;;;5005877;28;20215;-48
2023/03/13 09:24:05;;;;;;;631.30;131.60;;;;;;;;;;5016194;28;20246;-49
2023/03/13 09:26:31;;;;;;;572.80;121.53;;;;;;;;;;5003602;28;20230;-49
2023/03/13 09:28:57;;;;;;;467.03;85.13;;;;;;;;;;5012719;28;20227;-48
2023/03/13 09:31:24;;;;;;;592.63;119.47;;;;;;;;;;5012884;28;20299;-49
2023/03/13 09:33:50;;;;;;;669.03;151.90;;;;;;;;;;5020147;28;20256;-49
2023/03/13 09:36:17;;;;;;;580.73;112.90;;;;;;;;;;5010272;28;20208;-50
2023/03/13 09:38:44;;;;;;;606.50;126.00;;;;;;;;;;5015687;28;20395;-49
2023/03/13 09:41:22;;;;;;;700.23;149.37;;;;;;;;;;5003706;28;20214;-49
2023/03/13 09:43:57;;;;;;;470.33;90.27;;;;;;;;;;5008428;28;20726;-49
2023/03/13 09:46:25;;;;;;;557.20;109.07;;;;;;;;;;5013365;28;20825;-49
2023/03/13 09:48:56;;;;;;;687.00;152.50;;;;;;;;;;5002005;28;20222;-49
2023/03/13 09:51:30;;;;;;;534.43;104.20;;;;;;;;;;5009508;28;20306;-48
2023/03/13 09:53:59;;;;;;;569.50;118.33;;;;;;;;;;5001506;28;20218;-49
2023/03/13 09:56:30;;;;;;;595.07;118.70;;;;;;;;;;4999139;28;20230;-48
2023/03/13 09:59:01;;;;;;;589.90;120.70;;;;;;;;;;4993696;28;20291;-49
2023/03/13 10:01:30;;;;;;;660.07;140.37;;;;;;;;;;4997343;28;20320;-49
2023/03/13 10:04:06;;;;;;;610.67;124.87;;;;;;;;;;5015482;28;20614;-49
2023/03/13 10:06:39;;;;;;;735.53;166.40;;;;;;;;;;5018319;28;20554;-49
2023/03/13 10:09:15;;;;;;;594.87;124.03;;;;;;;;;;5011212;28;20480;-49
2023/03/13 10:11:44;;;;;;;547.63;107.93;;;;;;;;;;5030261;28;20249;-49
2023/03/13 10:14:14;;;;;;;609.17;129.47;;;;;;;;;;5019946;28;21405;-49
2023/03/13 10:16:49;;;;;;;577.73;123.03;;;;;;;;;;5021479;28;20183;-49
2023/03/13 10:19:16;;;;;;;568.47;117.20;;;;;;;;;;5030090;28;20200;-49
2023/03/13 10:21:44;;;;;;;609.77;124.17;;;;;;;;;;5024839;28;20545;-49
2023/03/13 10:24:10;;;;;;;590.70;118.80;;;;;;;;;;5022995;28;20612;-48
2023/03/13 10:26:37;;;;;;;613.87;125.63;;;;;;;;;;5037101;28;20221;-49
2023/03/13 10:29:18;;;;;;;571.83;111.07;;;;;;;;;;5041861;28;20695;-49
2023/03/13 10:31:47;;;;;;;556.10;110.73;;;;;;;;;;5042937;28;20207;-49
2023/03/13 10:34:13;;;;;;;626.87;127.20;;;;;;;;;;5026166;28;20357;-48
2023/03/13 10:36:43;;;;;;;593.33;116.20;;;;;;;;;;5036463;28;20677;-49
2023/03/13 10:39:20;;;;;;;581.43;114.87;;;;;;;;;;5049656;28;20298;-49
2023/03/13 10:41:47;;;;;;;618.83;125.00;;;;;;;;;;5029849;28;20223;-50
2023/03/13 10:44:18;;;;;;;679.27;144.67;;;;;;;;;;5030475;28;20246;-49
2023/03/13 10:46:45;;;;;;;624.40;125.23;;;;;;;;;;5029316;28;20378;-49
2023/03/13 10:49:18;;;;;;;597.53;112.53;;;;;;;;;;5010198;28;20218;-48
2023/03/13 10:51:54;;;;;;;617.70;123.43;;;;;;;;;;5024112;28;20315;-49
2023/03/13 10:54:30;;;;;;;668.67;145.63;;;;;;;;;;4988201;28;20659;-49
2023/03/13 10:57:15;;;;;;;639.83;133.43;;;;;;;;;;4994721;28;20211;-49
2023/03/13 10:59:44;;;;;;;567.50;113.23;;;;;;;;;;5025768;28;20258;-49
2023/03/13 11:02:37;;;;;;;611.63;122.50;;;;;;;;;;5009743;28;20238;-49
2023/03/13 11:05:27;;;;;;;567.83;111.50;;;;;;;;;;5018303;28;20818;-49
2023/03/13 11:07:54;;;;;;;715.03;155.47;;;;;;;;;;5027029;28;20231;-49
2023/03/13 11:10:25;;;;;;;635.27;129.30;;;;;;;;;;4994832;28;20195;-49
2023/03/13 11:12:52;;;;;;;584.77;125.63;;;;;;;;;;5003578;28;20376;-49
2023/03/13 11:15:20;;;;;;;656.40;150.03;;;;;;;;;;5015998;28;20255;-49
2023/03/13 11:17:50;;;;;;;549.27;117.60;;;;;;;;;;5006718;28;20263;-49
2023/03/13 11:20:27;;;;;;;620.13;138.63;;;;;;;;;;5031039;28;20800;-49
2023/03/13 11:23:09;;;;;;;621.53;136.73;;;;;;;;;;5033250;28;20229;-49
2023/03/13 11:25:38;;;;;;;568.73;128.20;;;;;;;;;;5030964;28;20284;-49
2023/03/13 11:28:11;;;;;;;635.80;150.13;;;;;;;;;;5031418;28;20309;-49
2023/03/13 11:30:46;;;;;;;606.60;139.23;;;;;;;;;;5029817;28;20677;-49
2023/03/13 11:33:22;;;;;;;578.10;134.20;;;;;;;;;;5030286;28;20744;-49
2023/03/13 11:35:47;;;;;;;614.63;150.53;;;;;;;;;;5018804;28;20453;-49
2023/03/13 11:38:26;;;;;;;643.77;160.33;;;;;;;;;;5014860;28;20262;-49
2023/03/13 11:41:04;;;;;;;595.53;143.80;;;;;;;;;;5015640;28;20227;-49
2023/03/13 11:43:34;;;;;;;499.07;113.47;;;;;;;;;;4998674;28;20206;-49
2023/03/13 11:46:30;;;;;;;539.87;146.17;;;;;;;;;;5022807;28;20210;-49
2023/03/13 11:49:02;;;;;;;642.90;161.70;;;;;;;;;;5004276;28;20238;-50
2023/03/13 11:51:28;;;;;;;680.00;178.00;;;;;;;;;;5016395;28;20659;-50
2023/03/13 11:54:02;;;;;;;627.97;145.73;;;;;;;;;;5025115;28;20241;-50
2023/03/13 11:56:40;;;;;;;656.40;163.53;;;;;;;;;;5007885;28;20219;-49
2023/03/13 11:59:09;;;;;;;559.47;131.17;;;;;;;;;;5030118;28;20500;-49
2023/03/13 12:01:39;;;;;;;616.77;144.43;;;;;;;;;;5021684;28;20420;-49
2023/03/13 12:04:11;;;;;;;538.13;127.90;;;;;;;;;;5037507;28;20210;-49
2023/03/13 12:06:40;;;;;;;524.77;128.77;;;;;;;;;;5034220;28;23509;-49
2023/03/13 12:09:15;;;;;;;635.47;168.03;;;;;;;;;;5037521;28;20223;-49
2023/03/13 12:11:46;;;;;;;648.80;166.70;;;;;;;;;;5009735;28;20281;-49
2023/03/13 12:14:22;;;;;;;726.00;213.67;;;;;;;;;;5006647;28;20323;-47
2023/03/13 12:16:50;;;;;;;710.77;210.60;;;;;;;;;;5009628;28;21464;-48
2023/03/13 12:19:19;;;;;;;684.63;200.53;;;;;;;;;;5022847;28;20251;-48
2023/03/13 12:21:49;;;;;;;592.50;171.53;;;;;;;;;;5031196;28;20304;-49
2023/03/13 12:24:39;;;;;;;559.33;167.97;;;13.10;99.90;;;;;;5036288;28;20672;-49
2023/03/13 12:27:05;;;;;;;484.07;140.70;;;;;;;;;;5015141;28;20212;-49
2023/03/13 12:29:31;;;;;;;503.83;147.30;;;;;;;;;;5035770;28;20275;-49
2023/03/13 12:32:03;;;;;;;591.57;199.53;;;13.10;99.90;;;;;;5029107;28;20254;-49
2023/03/13 12:34:48;;;;;;;615.13;186.60;;;;;;;;;;5041275;28;20450;-49
2023/03/13 12:37:27;;;;;;;602.90;197.50;;;13.10;99.90;;;;;;5027119;28;20265;-50
2023/03/13 12:40:15;;;;;;;596.90;190.03;;;;;;;;;;5024289;28;20465;-49
2023/03/13 12:42:54;;;;;;;636.60;197.70;;;13.30;99.90;;;;;;5009298;28;20237;-49
2023/03/13 12:45:24;;;;;;;659.10;204.20;;;13.30;99.90;;;;;;5017888;28;20584;-49
2023/03/13 12:48:05;;;;;;;620.20;188.37;;;13.40;90.20;;;;;;5020959;28;20238;-49
2023/03/13 12:51:00;;;;;;;535.37;146.47;;;13.40;75.30;;;;;;5036126;28;20219;-49
2023/03/13 12:53:47;;;;;;;640.33;191.20;;;13.50;91.60;;;;;;5023083;28;20302;-49
2023/03/13 12:56:43;;;;;;;736.93;234.90;;;13.90;91.10;;;;;;5022546;28;20706;-49
2023/03/13 12:59:19;;;;;;;528.30;135.80;;;14.00;32.90;;;;;;5026386;28;20259;-49
2023/03/13 13:01:49;;;;;;;552.30;145.87;;;14.30;1.00;;;;;;5008962;28;20275;-49
2023/03/13 13:04:22;;;;;;;632.57;166.83;;;14.30;1.00;;;;;;5002007;28;20207;-49
2023/03/13 13:06:53;;;;;;;651.07;168.53;;;15.30;1.00;;;;;;5023735;28;21566;-50
2023/03/13 13:09:26;;;;;;;571.67;133.43;;;14.70;1.00;;;;;;5033085;28;20227;-49
2023/03/13 13:14:20;;;;;;;629.10;138.90;;;;;;;;;;5006348;28;20788;-55
2023/03/13 13:16:49;;;;;;;614.17;131.33;;;;;;;;;;5009601;28;20196;-55
2023/03/13 13:19:24;;;;;;;683.77;187.07;;;;;;;;;;5004897;28;20241;-55
2023/03/13 13:22:09;;;;;;;723.27;196.00;;;;;;;;;;5006210;28;20305;-55
2023/03/13 13:24:40;;;;;;;667.60;241.53;;;;;;;;;;4992506;28;20214;-55
2023/03/13 13:27:25;;;;;;;675.97;278.10;;;;;;;;;;5009060;28;20529;-55
2023/03/13 13:29:52;;;;;;;820.37;336.77;;;;;;;;;;5011690;28;20369;-56
2023/03/13 13:32:28;;;;;;;775.07;338.30;;;;;;;;;;5007243;28;20234;-55
2023/03/13 13:34:55;;;;;;;822.43;366.17;;;;;;;;;;5014695;28;21699;-55
2023/03/13 13:37:21;;;;;;;840.87;371.77;;;;;;;;;;4977826;28;20220;-55
2023/03/13 13:39:49;;;;;;;820.20;379.00;;;;;;;;;;5001727;28;20545;-55
2023/03/13 13:50:00;;;;;;;774.57;381.50;;;;;;;;;;5084514;27;20774;-55
